Time;durP1;ratioP1;P1;durP2;ratioP2;P2;SDS_P1;SDS_P2;PMS_P1;PMS_P2;Temp;Humidity;BMP_temperature;BMP_pressure;BME280_temperature;BME280_humidity;BME280_pressure;Samples;Min_cycle;Max_cycle;Signal;HPM_P1;HPM_P2
2021/12/13 00:00:01;;;;;;;20.65;11.85;;;10.00;99.90;;;;;;5159215;27;20419;-81
2021/12/13 00:02:35;;;;;;;19.43;10.97;;;10.00;99.90;;;;;;5166068;27;20042;-82
2021/12/13 00:05:08;;;;;;;19.85;11.00;;;10.00;99.90;;;;;;5168382;27;20063;-81
2021/12/13 00:07:38;;;;;;;18.08;10.73;;;10.00;99.90;;;;;;5168985;27;20076;-81
2021/12/13 00:10:12;;;;;;;16.40;11.40;;;10.00;99.90;;;;;;5168672;27;20144;-82
2021/12/13 00:12:43;;;;;;;20.02;11.63;;;10.00;99.90;;;;;;5162065;27;20053;-81
2021/12/13 00:15:15;;;;;;;20.45;11.93;;;10.00;99.90;;;;;;5158502;27;20056;-83
2021/12/13 00:17:45;;;;;;;21.95;12.15;;;10.00;99.90;;;;;;5157823;27;20109;-82
2021/12/13 00:20:16;;;;;;;20.33;11.40;;;10.00;99.90;;;;;;5159215;27;20074;-82
2021/12/13 00:22:46;;;;;;;19.70;12.20;;;10.00;99.90;;;;;;5157847;27;20047;-82
2021/12/13 00:25:17;;;;;;;19.90;11.52;;;10.50;99.90;;;;;;5157570;27;20437;-84
2021/12/13 00:27:49;;;;;;;19.63;11.75;;;10.40;99.90;;;;;;5176683;27;20185;-83
2021/12/13 00:30:27;;;;;;;16.70;11.43;;;10.00;99.90;;;;;;5157944;27;20062;-80
2021/12/13 00:33:06;;;;;;;20.02;12.13;;;10.00;99.90;;;;;;5156936;27;20141;-80
2021/12/13 00:35:38;;;;;;;20.65;12.07;;;10.00;99.90;;;;;;5158452;27;20046;-80
2021/12/13 00:38:09;;;;;;;21.92;12.45;;;10.00;99.90;;;;;;5158160;27;20138;-78
2021/12/13 00:40:40;;;;;;;24.42;14.10;;;10.00;99.90;;;;;;5158091;27;20107;-82
2021/12/13 00:43:11;;;;;;;24.05;13.65;;;10.00;99.90;;;;;;5158282;27;20114;-78
2021/12/13 00:45:47;;;;;;;24.58;13.45;;;10.00;99.90;;;;;;5159121;27;20046;-78
2021/12/13 00:48:15;;;;;;;28.60;14.10;;;10.00;99.90;;;;;;5158998;27;20058;-80
2021/12/13 00:50:47;;;;;;;21.02;12.75;;;10.30;99.90;;;;;;5160921;27;20062;-80
2021/12/13 00:53:17;;;;;;;26.67;14.13;;;10.00;99.90;;;;;;5148307;27;20071;-81
2021/12/13 00:55:46;;;;;;;35.75;15.80;;;10.00;99.90;;;;;;5118853;27;20476;-81
2021/12/13 00:58:16;;;;;;;23.90;13.27;;;10.00;99.90;;;;;;5118555;27;20075;-83
2021/12/13 01:00:50;;;;;;;32.88;14.68;;;10.60;99.90;;;;;;5119308;27;20074;-83
2021/12/13 01:03:19;;;;;;;27.83;14.35;;;10.00;99.90;;;;;;5118799;27;20119;-83
2021/12/13 01:06:28;;;;;;;22.10;11.82;;;10.00;99.90;;;;;;5117212;27;20117;-82
2021/12/13 01:09:42;;;;;;;20.90;13.00;;;10.10;99.90;;;;;;5116622;27;20047;-81
2021/12/13 01:12:13;;;;;;;24.33;14.07;;;10.00;99.90;;;;;;5115277;28;20135;-82
2021/12/13 01:14:57;;;;;;;21.10;12.73;;;10.00;99.90;;;;;;5114909;27;20054;-82
2021/12/13 01:17:39;;;;;;;25.88;13.77;;;10.10;99.90;;;;;;5115651;28;20059;-81
2021/12/13 01:20:11;;;;;;;27.67;13.68;;;10.00;99.90;;;;;;5115840;28;20051;-81
2021/12/13 01:22:46;;;;;;;29.27;14.20;;;10.10;99.90;;;;;;5118661;27;20047;-81
2021/12/13 01:25:25;;;;;;;27.10;14.38;;;10.10;99.90;;;;;;5156616;27;20050;-81
2021/12/13 01:28:00;;;;;;;32.90;16.17;;;10.10;99.90;;;;;;5156432;27;20061;-81
2021/12/13 01:30:40;;;;;;;26.83;13.52;;;10.10;99.90;;;;;;5156862;27;20141;-81
2021/12/13 01:33:09;;;;;;;22.90;13.02;;;10.00;99.90;;;;;;5156508;27;20034;-79
2021/12/13 01:35:41;;;;;;;23.60;12.97;;;10.20;99.90;;;;;;5156106;27;20449;-79
2021/12/13 01:38:13;;;;;;;24.30;12.30;;;10.10;99.90;;;;;;5156890;27;20042;-80
2021/12/13 01:40:45;;;;;;;27.67;13.65;;;10.10;99.90;;;;;;5156759;27;20082;-79
2021/12/13 01:43:14;;;;;;;21.52;11.93;;;10.10;99.90;;;;;;5155810;27;20125;-79
2021/12/13 01:45:47;;;;;;;22.90;12.23;;;10.10;99.90;;;;;;5156379;27;20564;-79
2021/12/13 01:48:23;;;;;;;20.33;11.65;;;10.00;99.90;;;;;;5147461;27;20126;-79
2021/12/13 01:50:53;;;;;;;23.17;12.48;;;10.00;99.90;;;;;;5115386;28;20089;-79
2021/12/13 01:53:31;;;;;;;25.33;10.52;;;10.10;99.90;;;;;;5114917;28;20179;-79
2021/12/13 01:56:08;;;;;;;21.60;11.40;;;10.10;99.90;;;;;;5110821;28;20051;-79
2021/12/13 01:58:42;;;;;;;22.05;10.57;;;10.00;99.90;;;;;;5111541;28;20134;-78
2021/12/13 02:01:14;;;;;;;19.38;11.70;;;10.10;99.90;;;;;;5112048;28;20479;-78
2021/12/13 02:03:55;;;;;;;22.63;11.93;;;10.10;99.90;;;;;;5110578;28;20044;-78
2021/12/13 02:06:24;;;;;;;;;;;10.00;99.90;;;;;;5112040;28;20051;-78
2021/12/13 02:08:56;;;;;;;21.67;11.82;;;10.10;99.90;;;;;;5111697;28;19923;-79
2021/12/13 02:11:24;;;;;;;21.35;12.02;;;10.10;99.90;;;;;;5110909;28;20082;-79
2021/12/13 02:14:08;;;;;;;21.50;13.32;;;10.00;99.90;;;;;;5111486;28;20448;-80
2021/12/13 02:17:10;;;;;;;24.85;12.75;;;10.10;99.90;;;;;;5112132;28;20051;-79
2021/12/13 02:19:43;;;;;;;27.90;13.25;;;10.10;99.90;;;;;;5145695;27;20409;-79
2021/12/13 02:22:39;;;;;;;25.30;12.75;;;10.00;99.90;;;;;;5154989;27;20096;-80
2021/12/13 02:25:19;;;;;;;25.30;14.40;;;10.00;99.90;;;;;;5156373;27;20459;-78
2021/12/13 02:27:50;;;;;;;23.00;13.77;;;10.00;99.90;;;;;;5156615;27;20130;-78
2021/12/13 02:30:25;;;;;;;25.33;14.10;;;10.00;99.90;;;;;;5157201;27;20110;-77
2021/12/13 02:32:52;;;;;;;32.55;15.25;;;10.10;99.90;;;;;;5155189;27;20082;-77
2021/12/13 02:35:22;;;;;;;25.15;15.07;;;10.10;99.90;;;;;;5156289;27;20448;-77
2021/12/13 02:37:51;;;;;;;33.80;14.73;;;10.10;99.90;;;;;;5155705;27;20077;-77
2021/12/13 02:40:22;;;;;;;33.83;16.35;;;10.10;99.90;;;;;;5156382;27;20077;-77
2021/12/13 02:42:49;;;;;;;;;;;10.10;99.90;;;;;;5156512;27;20478;-78
2021/12/13 02:45:22;;;;;;;28.05;15.63;;;10.50;99.90;;;;;;5145799;27;19920;-79
2021/12/13 02:47:55;;;;;;;33.80;16.40;;;10.10;99.90;;;;;;5135287;27;20189;-79
2021/12/13 02:50:31;;;;;;;31.42;15.55;;;10.10;99.90;;;;;;5135840;27;20158;-79
2021/12/13 02:53:00;;;;;;;34.13;15.85;;;10.10;99.90;;;;;;5134347;27;20050;-80
2021/12/13 02:55:30;;;;;;;40.75;15.68;;;10.00;99.90;;;;;;5137382;27;20163;-80
2021/12/13 02:58:00;;;;;;;35.53;16.05;;;10.00;99.90;;;;;;5138974;27;20057;-80
2021/12/13 03:00:31;;;;;;;27.57;14.30;;;10.00;99.90;;;;;;5137987;27;20089;-80
2021/12/13 03:03:00;;;;;;;29.45;14.95;;;10.00;99.90;;;;;;5138065;27;20074;-80
2021/12/13 03:05:30;;;;;;;35.10;15.73;;;10.00;99.90;;;;;;5138562;27;20145;-80
2021/12/13 03:08:04;;;;;;;27.63;14.38;;;10.00;99.90;;;;;;5137903;27;20054;-80
2021/12/13 03:10:35;;;;;;;31.20;13.18;;;10.00;99.90;;;;;;5139709;27;20053;-80
2021/12/13 03:13:02;;;;;;;29.90;14.13;;;10.00;99.90;;;;;;5137507;27;20581;-79
2021/12/13 03:15:32;;;;;;;29.77;13.15;;;10.00;99.90;;;;;;5149125;27;20051;-79
2021/12/13 03:18:02;;;;;;;28.88;11.63;;;9.90;99.90;;;;;;5158652;27;20512;-80
2021/12/13 03:21:03;;;;;;;26.38;13.13;;;10.10;99.90;;;;;;5158371;27;20050;-79
2021/12/13 03:24:09;;;;;;;33.47;13.95;;;9.90;99.90;;;;;;5157540;27;20042;-80
2021/12/13 03:26:55;;;;;;;23.67;12.68;;;9.90;99.90;;;;;;5138073;27;20227;-79
2021/12/13 03:29:35;;;;;;;24.40;11.43;;;9.90;99.90;;;;;;5137689;27;20126;-79
2021/12/13 03:32:02;;;;;;;28.73;11.93;;;9.90;99.90;;;;;;5137745;27;20046;-79
2021/12/13 03:34:35;;;;;;;24.83;12.50;;;9.90;99.90;;;;;;5136459;27;20129;-79
2021/12/13 03:37:08;;;;;;;26.08;13.48;;;9.90;99.90;;;;;;5138021;27;20072;-78
2021/12/13 03:39:41;;;;;;;31.80;12.95;;;9.90;99.90;;;;;;5137305;27;20138;-78
2021/12/13 03:42:11;;;;;;;25.80;11.73;;;9.90;99.90;;;;;;5136635;27;20054;-78
2021/12/13 03:44:41;;;;;;;25.60;12.27;;;9.90;99.90;;;;;;5143191;27;20462;-78
2021/12/13 03:47:12;;;;;;;22.42;10.65;;;10.10;99.90;;;;;;5158265;27;20058;-78
2021/12/13 03:49:43;;;;;;;30.23;12.30;;;9.80;99.90;;;;;;5157595;27;20050;-79
2021/12/13 03:52:12;;;;;;;27.65;11.40;;;9.80;99.90;;;;;;5158282;27;20081;-80
2021/12/13 03:54:44;;;;;;;24.33;10.90;;;9.80;99.90;;;;;;5158032;27;20105;-80
2021/12/13 03:57:12;;;;;;;27.50;10.57;;;10.30;99.90;;;;;;5157402;27;20081;-80
2021/12/13 03:59:42;;;;;;;18.95;10.40;;;9.80;99.90;;;;;;5158069;27;20050;-80
2021/12/13 04:02:14;;;;;;;21.85;11.38;;;10.50;99.90;;;;;;5157431;27;20517;-80
2021/12/13 04:04:46;;;;;;;21.77;9.73;;;9.80;99.90;;;;;;5157613;27;20050;-79
2021/12/13 04:07:18;;;;;;;19.70;9.75;;;9.80;99.90;;;;;;5157885;27;20050;-78
2021/12/13 04:09:49;;;;;;;21.27;8.20;;;9.80;99.90;;;;;;5156910;27;20085;-79
2021/12/13 04:12:18;;;;;;;17.40;7.60;;;9.80;99.90;;;;;;5176108;27;20077;-79
2021/12/13 04:14:52;;;;;;;14.75;7.82;;;9.70;99.90;;;;;;5168777;27;20553;-79
2021/12/13 04:17:37;;;;;;;19.25;7.43;;;9.80;99.90;;;;;;5136209;27;20126;-78
2021/12/13 04:20:08;;;;;;;15.68;7.28;;;9.70;99.90;;;;;;5136835;27;20047;-78
2021/12/13 04:22:40;;;;;;;14.65;6.60;;;9.70;99.90;;;;;;5136540;27;20051;-78
2021/12/13 04:25:12;;;;;;;19.25;7.63;;;9.70;99.90;;;;;;5135943;27;20078;-78
2021/12/13 04:27:42;;;;;;;15.60;7.10;;;9.70;99.90;;;;;;5136963;27;20133;-78
2021/12/13 04:30:18;;;;;;;14.25;6.38;;;9.70;99.90;;;;;;5136957;27;20133;-78
2021/12/13 04:32:50;;;;;;;16.23;6.18;;;9.70;99.90;;;;;;5136692;27;20139;-78
2021/12/13 04:35:17;;;;;;;11.20;6.05;;;9.70;99.90;;;;;;5137493;27;20103;-78
2021/12/13 04:37:48;;;;;;;14.13;6.35;;;9.70;99.90;;;;;;5153702;27;20046;-79
2021/12/13 04:40:19;;;;;;;18.73;6.38;;;9.70;99.90;;;;;;5158432;27;20144;-78
2021/12/13 04:42:50;;;;;;;13.18;6.15;;;9.70;99.90;;;;;;5158298;27;20153;-78
2021/12/13 04:45:18;;;;;;;;;;;9.60;99.90;;;;;;5156652;27;20078;-79
2021/12/13 04:47:49;;;;;;;13.07;5.93;;;9.60;99.90;;;;;;5157940;27;19919;-78
2021/12/13 04:50:22;;;;;;;11.15;5.47;;;9.60;99.90;;;;;;5157899;27;20106;-80
2021/12/13 04:52:49;;;;;;;10.48;5.07;;;9.60;99.90;;;;;;5156533;27;20468;-80
2021/12/13 04:55:22;;;;;;;10.43;4.72;;;9.70;99.90;;;;;;5156953;27;20042;-79
2021/12/13 04:57:50;;;;;;;10.88;4.53;;;9.70;99.90;;;;;;5156973;27;20088;-80
2021/12/13 05:00:20;;;;;;;10.52;3.97;;;9.60;99.90;;;;;;5156658;27;20089;-80
2021/12/13 05:02:50;;;;;;;9.57;4.82;;;10.20;99.90;;;;;;5157278;27;20478;-79
2021/12/13 05:05:18;;;;;;;6.30;4.10;;;9.60;99.90;;;;;;5150232;27;20047;-77
2021/12/13 05:07:50;;;;;;;6.05;3.22;;;9.60;99.90;;;;;;5137374;27;20133;-77
2021/12/13 05:10:19;;;;;;;10.88;3.85;;;9.60;99.90;;;;;;5137899;27;20486;-77
2021/12/13 05:13:01;;;;;;;5.57;3.03;;;9.60;99.90;;;;;;5137095;27;20174;-76
2021/12/13 05:15:30;;;;;;;8.50;2.90;;;9.60;99.90;;;;;;5152705;27;20117;-77
2021/12/13 05:18:00;;;;;;;6.38;3.03;;;9.60;99.90;;;;;;5159176;27;20082;-78
2021/12/13 05:20:31;;;;;;;4.60;3.03;;;9.60;99.90;;;;;;5157567;27;20058;-78
2021/12/13 05:23:01;;;;;;;6.50;3.03;;;9.60;99.90;;;;;;5157576;27;20050;-78
2021/12/13 05:25:33;;;;;;;5.75;3.33;;;9.50;99.90;;;;;;5146423;27;20082;-78
2021/12/13 05:28:04;;;;;;;6.32;3.10;;;9.60;99.90;;;;;;5139573;27;20058;-77
2021/12/13 05:30:36;;;;;;;7.80;3.70;;;9.60;99.90;;;;;;5136994;27;20138;-78
2021/12/13 05:33:07;;;;;;;6.75;4.00;;;9.50;99.90;;;;;;5142332;27;20051;-77
2021/12/13 05:35:38;;;;;;;6.68;3.83;;;9.50;99.90;;;;;;5142334;27;20106;-77
2021/12/13 05:38:08;;;;;;;7.85;4.22;;;9.50;99.90;;;;;;5146845;27;20181;-78
2021/12/13 05:40:41;;;;;;;8.32;3.95;;;9.50;99.90;;;;;;5126336;27;20486;-78
2021/12/13 05:43:19;;;;;;;8.77;4.45;;;9.60;99.90;;;;;;5126181;27;20051;-77
2021/12/13 05:45:50;;;;;;;7.50;4.10;;;9.60;99.90;;;;;;5135578;27;20042;-81
2021/12/13 05:48:20;;;;;;;7.72;4.22;;;9.60;99.90;;;;;;5129054;27;20126;-76
2021/12/13 05:50:50;;;;;;;10.00;4.05;;;9.50;99.90;;;;;;5129076;28;20057;-76
2021/12/13 05:53:20;;;;;;;8.38;3.60;;;9.50;99.90;;;;;;5127132;27;20068;-76
2021/12/13 05:55:55;;;;;;;6.40;4.13;;;9.60;99.90;;;;;;5131346;27;20051;-75
2021/12/13 05:58:41;;;;;;;6.78;4.15;;;9.50;99.90;;;;;;5137141;27;20128;-76
2021/12/13 06:01:16;;;;;;;8.90;4.72;;;9.50;99.90;;;;;;5134474;27;20089;-76
2021/12/13 06:03:50;;;;;;;7.50;4.28;;;9.50;99.90;;;;;;5132891;27;20053;-77
2021/12/13 06:06:26;;;;;;;10.07;4.97;;;9.50;99.90;;;;;;5133961;27;20509;-77
2021/12/13 06:08:56;;;;;;;12.32;4.38;;;9.50;99.90;;;;;;5133666;27;20498;-77
2021/12/13 06:11:33;;;;;;;6.93;5.15;;;9.50;99.90;;;;;;5131474;27;20050;-77
2021/12/13 06:14:05;;;;;;;13.88;6.65;;;9.50;99.90;;;;;;5137306;27;20054;-78
2021/12/13 06:16:44;;;;;;;11.73;6.18;;;9.50;99.90;;;;;;5133283;27;20046;-78
2021/12/13 06:19:16;;;;;;;10.90;5.93;;;9.50;99.90;;;;;;5138374;27;20130;-75
2021/12/13 06:21:54;;;;;;;8.57;5.20;;;9.50;99.90;;;;;;5141611;27;20478;-75
2021/12/13 06:24:27;;;;;;;7.32;5.47;;;9.40;99.90;;;;;;5139215;27;20065;-76
2021/12/13 06:27:06;;;;;;;11.93;6.35;;;9.50;99.90;;;;;;5137937;27;20102;-78
2021/12/13 06:29:53;;;;;;;13.50;5.95;;;9.50;99.90;;;;;;5137602;27;20535;-80
2021/12/13 06:32:32;;;;;;;10.23;6.28;;;9.50;99.90;;;;;;5135363;27;20050;-77
2021/12/13 06:34:59;;;;;;;11.32;5.97;;;9.40;99.90;;;;;;5137079;27;20129;-77
2021/12/13 06:37:30;;;;;;;13.57;6.18;;;9.40;99.90;;;;;;5135974;27;20087;-77
2021/12/13 06:40:16;;;;;;;14.88;6.38;;;9.40;99.90;;;;;;5140739;27;20046;-78
2021/12/13 06:42:44;;;;;;;13.93;6.68;;;9.50;99.90;;;;;;5135670;27;20121;-77
2021/12/13 06:45:26;;;;;;;10.50;6.18;;;9.40;99.90;;;;;;5139662;27;20051;-77
2021/12/13 06:47:56;;;;;;;11.27;6.10;;;9.40;99.90;;;;;;5136556;27;20142;-80
2021/12/13 06:50:26;;;;;;;11.10;6.57;;;9.50;99.90;;;;;;5135431;27;20081;-79
2021/12/13 06:53:08;;;;;;;10.40;6.07;;;9.40;99.90;;;;;;5138494;27;20129;-79
2021/12/13 06:55:35;;;;;;;10.73;6.15;;;9.40;99.90;;;;;;5135794;27;20086;-78
2021/12/13 06:58:15;;;;;;;12.27;6.90;;;9.40;99.90;;;;;;5133699;27;20054;-79
2021/12/13 07:00:42;;;;;;;10.93;6.03;;;9.40;99.90;;;;;;5137971;27;20133;-76
2021/12/13 07:03:10;;;;;;;10.57;6.53;;;9.40;99.90;;;;;;5137368;27;20511;-78
2021/12/13 07:05:43;;;;;;;11.68;5.82;;;9.40;99.90;;;;;;5137630;27;20046;-74
2021/12/13 07:08:13;;;;;;;9.00;5.80;;;9.40;99.90;;;;;;5136690;27;20070;-77
2021/12/13 07:10:43;;;;;;;10.38;6.20;;;9.40;99.90;;;;;;5135225;27;20042;-78
2021/12/13 07:13:25;;;;;;;9.48;6.13;;;9.40;99.90;;;;;;5136952;27;20148;-78
2021/12/13 07:15:57;;;;;;;12.20;6.38;;;9.40;99.90;;;;;;5111197;27;20057;-77
2021/12/13 07:18:29;;;;;;;14.40;6.28;;;9.30;99.90;;;;;;5136196;27;20457;-79
2021/12/13 07:21:03;;;;;;;10.55;6.40;;;9.40;99.90;;;;;;5137590;27;20081;-78
2021/12/13 07:23:55;;;;;;;10.63;6.22;;;9.30;99.90;;;;;;5138320;27;20133;-78
2021/12/13 07:26:35;;;;;;;13.93;6.22;;;9.30;99.90;;;;;;5133598;27;20435;-78
2021/12/13 07:29:07;;;;;;;12.25;6.45;;;9.30;99.90;;;;;;5135336;27;20054;-77
2021/12/13 07:31:35;;;;;;;13.88;6.47;;;9.30;99.90;;;;;;5136730;27;20130;-78
2021/12/13 07:34:13;;;;;;;14.13;6.70;;;9.40;99.90;;;;;;5139487;27;20137;-78
2021/12/13 07:36:40;;;;;;;12.57;6.78;;;9.30;99.90;;;;;;5136907;27;20133;-77
2021/12/13 07:39:15;;;;;;;15.55;8.07;;;9.30;99.90;;;;;;5135775;27;20212;-78
2021/12/13 07:41:46;;;;;;;14.18;7.20;;;9.30;99.90;;;;;;5136410;27;20061;-78
2021/12/13 07:44:32;;;;;;;11.65;7.00;;;9.30;99.90;;;;;;5137186;27;20166;-78
2021/12/13 07:47:01;;;;;;;16.30;8.20;;;9.30;99.90;;;;;;5136596;27;20258;-77
2021/12/13 07:49:32;;;;;;;13.48;7.15;;;9.30;99.90;;;;;;5134597;27;20134;-78
2021/12/13 07:52:00;;;;;;;13.15;7.82;;;9.80;99.90;;;;;;5136292;27;20134;-78
2021/12/13 07:54:28;;;;;;;14.52;8.50;;;9.30;99.90;;;;;;5135909;27;20509;-78
2021/12/13 07:56:57;;;;;;;13.63;8.65;;;9.30;99.90;;;;;;5135996;27;20138;-78
2021/12/13 07:59:29;;;;;;;12.57;7.90;;;9.40;99.90;;;;;;5134670;27;20039;-78
2021/12/13 08:02:01;;;;;;;15.88;9.52;;;9.30;99.90;;;;;;5136663;27;20133;-78
2021/12/13 08:04:31;;;;;;;16.33;9.43;;;9.40;99.90;;;;;;5137031;27;20035;-77
2021/12/13 08:07:00;;;;;;;13.05;8.93;;;9.30;99.90;;;;;;5135780;27;20126;-78
2021/12/13 08:09:30;;;;;;;13.57;8.65;;;9.40;99.90;;;;;;5134395;27;20145;-79
2021/12/13 08:12:00;;;;;;;14.15;9.30;;;9.40;99.90;;;;;;5136288;27;20121;-78
2021/12/13 08:14:31;;;;;;;15.23;9.73;;;9.40;99.90;;;;;;5136798;27;20074;-78
2021/12/13 08:17:09;;;;;;;13.32;8.48;;;9.40;99.90;;;;;;5135036;27;20509;-80
2021/12/13 08:19:37;;;;;;;15.60;9.88;;;9.40;99.90;;;;;;5136862;27;20114;-76
2021/12/13 08:22:11;;;;;;;16.13;9.48;;;9.40;99.90;;;;;;5138291;27;20138;-76
2021/12/13 08:24:44;;;;;;;17.75;10.38;;;9.40;99.90;;;;;;5131686;27;20149;-76
2021/12/13 08:27:16;;;;;;;15.80;10.00;;;9.50;99.90;;;;;;5134363;27;20051;-75
2021/12/13 08:29:45;;;;;;;17.02;9.95;;;9.40;99.90;;;;;;5128685;27;20058;-77
2021/12/13 08:32:15;;;;;;;15.65;9.13;;;9.50;99.90;;;;;;5127854;27;20529;-77
2021/12/13 08:34:44;;;;;;;;;;;9.50;99.90;;;;;;5138145;27;20126;-77
2021/12/13 08:37:31;;;;;;;17.80;10.80;;;10.00;99.90;;;;;;5135991;27;19919;-76
2021/12/13 08:40:09;;;;;;;18.98;10.32;;;9.50;99.90;;;;;;5118595;27;20082;-77
2021/12/13 08:42:39;;;;;;;15.57;9.43;;;9.50;99.90;;;;;;5118056;27;20407;-76
2021/12/13 08:45:12;;;;;;;14.75;10.38;;;9.50;99.90;;;;;;5116989;27;20090;-77
2021/12/13 08:47:43;;;;;;;15.57;10.73;;;9.50;99.90;;;;;;5126983;27;20087;-77
2021/12/13 08:50:16;;;;;;;18.85;10.77;;;9.60;99.90;;;;;;5115858;27;20138;-77
2021/12/13 08:52:45;;;;;;;14.13;10.93;;;9.60;99.90;;;;;;5125276;27;20139;-76
2021/12/13 08:55:26;;;;;;;19.30;11.43;;;9.60;99.90;;;;;;5127959;27;20096;-76
2021/12/13 08:58:00;;;;;;;16.15;11.20;;;9.70;99.90;;;;;;5132463;27;20107;-77
2021/12/13 09:00:45;;;;;;;16.23;11.70;;;9.70;99.90;;;;;;5117896;27;20051;-77
2021/12/13 09:03:22;;;;;;;18.40;11.00;;;9.70;99.90;;;;;;5136087;27;20043;-77
2021/12/13 09:06:03;;;;;;;19.48;11.68;;;9.70;99.90;;;;;;5128218;27;20096;-76
2021/12/13 09:08:33;;;;;;;15.55;10.70;;;9.70;99.90;;;;;;5126618;27;20118;-77
2021/12/13 09:11:12;;;;;;;17.58;11.30;;;9.70;99.90;;;;;;5117863;27;20145;-77
2021/12/13 09:13:44;;;;;;;16.48;11.43;;;9.80;99.90;;;;;;5128826;27;20051;-77
2021/12/13 09:16:20;;;;;;;18.05;11.05;;;10.20;99.90;;;;;;5125397;27;20122;-77
2021/12/13 09:18:47;;;;;;;17.65;11.48;;;10.00;99.90;;;;;;5123242;28;20047;-77
2021/12/13 09:21:20;;;;;;;16.02;11.30;;;9.80;99.90;;;;;;5113935;28;20047;-77
2021/12/13 09:23:50;;;;;;;21.75;12.07;;;9.80;99.90;;;;;;5120086;27;20054;-77
2021/12/13 09:26:21;;;;;;;16.58;11.35;;;9.80;99.90;;;;;;5121838;27;20090;-77
2021/12/13 09:28:51;;;;;;;22.77;12.38;;;9.90;99.90;;;;;;5124353;28;20121;-77
2021/12/13 09:31:24;;;;;;;17.88;12.25;;;9.90;99.90;;;;;;5127604;27;20459;-77
2021/12/13 09:33:55;;;;;;;17.45;11.50;;;9.90;99.90;;;;;;5132909;27;20047;-77
2021/12/13 09:36:26;;;;;;;16.45;11.05;;;9.90;99.90;;;;;;5130028;27;20122;-77
2021/12/13 09:38:58;;;;;;;18.67;11.05;;;9.90;99.90;;;;;;5131825;27;20051;-77
2021/12/13 09:41:38;;;;;;;16.52;11.52;;;9.90;99.90;;;;;;5123972;27;20050;-77
2021/12/13 09:44:17;;;;;;;15.27;10.50;;;9.90;99.90;;;;;;5125098;27;20133;-76
2021/12/13 09:46:51;;;;;;;17.30;11.13;;;9.90;99.90;;;;;;5120392;27;20092;-75
2021/12/13 09:49:25;;;;;;;16.88;10.73;;;9.90;99.90;;;;;;5118623;27;20051;-76
2021/12/13 09:51:57;;;;;;;17.05;10.90;;;10.00;99.90;;;;;;5124629;27;20090;-76
2021/12/13 09:54:29;;;;;;;18.00;10.75;;;9.90;99.90;;;;;;5129588;27;20593;-77
2021/12/13 09:56:59;;;;;;;16.80;10.88;;;9.90;99.90;;;;;;5127855;27;20092;-76
2021/12/13 09:59:29;;;;;;;18.50;10.93;;;10.00;99.90;;;;;;5118135;27;20047;-76
2021/12/13 10:01:59;;;;;;;;;;;10.00;99.90;;;;;;5137440;27;20050;-76
2021/12/13 10:04:31;;;;;;;15.90;10.23;;;10.20;99.90;;;;;;5129979;27;20017;-76
2021/12/13 10:07:01;;;;;;;14.82;10.07;;;10.00;99.90;;;;;;5132615;27;20099;-76
2021/12/13 10:09:34;;;;;;;17.25;10.93;;;10.00;99.90;;;;;;5135035;27;20051;-76
2021/12/13 10:12:04;;;;;;;15.00;10.43;;;10.00;99.90;;;;;;5129673;27;20057;-76
2021/12/13 10:14:35;;;;;;;14.00;9.48;;;10.10;99.90;;;;;;5120929;27;20126;-76
2021/12/13 10:17:05;;;;;;;13.50;9.30;;;10.00;99.90;;;;;;5131672;27;20066;-76
2021/12/13 10:19:35;;;;;;;13.73;9.13;;;10.00;99.90;;;;;;5127308;27;20586;-76
2021/12/13 10:22:03;;;;;;;13.95;9.27;;;10.00;99.90;;;;;;5124373;27;20130;-76
2021/12/13 10:24:34;;;;;;;14.35;9.45;;;10.00;99.90;;;;;;5126337;27;20130;-76
2021/12/13 10:27:04;;;;;;;12.40;9.48;;;10.00;99.90;;;;;;5135165;27;20093;-76
2021/12/13 10:29:33;;;;;;;16.08;9.82;;;10.00;99.90;;;;;;5125550;27;20093;-76
2021/12/13 10:32:06;;;;;;;14.40;9.57;;;10.00;99.90;;;;;;5119834;27;20443;-76
2021/12/13 10:34:39;;;;;;;16.20;10.25;;;10.10;99.90;;;;;;5122956;27;20125;-76
2021/12/13 10:37:10;;;;;;;16.77;9.98;;;10.10;99.90;;;;;;5128505;27;20391;-77
2021/12/13 10:39:41;;;;;;;16.27;10.20;;;10.10;99.90;;;;;;5129302;27;20133;-77
2021/12/13 10:42:09;;;;;;;;;;;10.20;99.90;;;;;;5126792;27;20471;-76
2021/12/13 10:44:38;;;;;;;11.18;7.35;;;10.20;99.90;;;;;;5118406;27;19919;-74
2021/12/13 10:47:10;;;;;;;14.95;9.07;;;10.40;99.90;;;;;;5124095;27;20070;-77
2021/12/13 10:49:48;;;;;;;13.43;9.85;;;10.30;99.90;;;;;;5127800;27;20141;-76
2021/12/13 10:52:19;;;;;;;15.10;8.98;;;10.30;99.90;;;;;;5127118;27;20057;-77
2021/12/13 10:54:47;;;;;;;;;;;10.30;99.90;;;;;;5125697;27;20054;-77
2021/12/13 10:57:19;;;;;;;12.57;9.00;;;10.30;99.90;;;;;;5126343;27;20353;-78
2021/12/13 10:59:48;;;;;;;18.15;10.15;;;10.30;99.90;;;;;;5126727;27;20087;-77
2021/12/13 11:02:21;;;;;;;15.45;9.68;;;10.30;99.90;;;;;;5136587;27;20051;-77
2021/12/13 11:04:54;;;;;;;14.90;9.88;;;10.30;99.90;;;;;;5138102;27;20093;-75
2021/12/13 11:07:22;;;;;;;13.40;8.90;;;10.20;99.90;;;;;;5134527;27;20047;-76
2021/12/13 11:09:51;;;;;;;14.82;10.18;;;10.20;99.90;;;;;;5125658;27;20145;-76
2021/12/13 11:12:21;;;;;;;16.85;10.20;;;10.20;99.90;;;;;;5131867;27;20417;-76
2021/12/13 11:14:51;;;;;;;14.13;9.93;;;10.20;99.90;;;;;;5130775;27;20051;-77
2021/12/13 11:17:23;;;;;;;15.45;10.27;;;10.20;99.90;;;;;;5134821;27;20054;-77
2021/12/13 11:19:53;;;;;;;16.02;10.30;;;10.20;99.90;;;;;;5138777;27;20082;-77
2021/12/13 11:22:24;;;;;;;16.90;10.57;;;10.20;99.90;;;;;;5141735;27;20077;-77
2021/12/13 11:24:54;;;;;;;15.57;9.73;;;10.20;99.90;;;;;;5127034;27;20108;-77
2021/12/13 11:27:27;;;;;;;15.30;10.07;;;10.20;99.90;;;;;;5128514;27;20070;-76
2021/12/13 11:29:55;;;;;;;15.77;11.02;;;10.20;99.90;;;;;;5122579;27;20047;-77
2021/12/13 11:32:55;;;;;;;17.42;10.13;;;10.20;99.90;;;;;;5124363;27;20061;-77
2021/12/13 11:36:13;;;;;;;16.50;10.35;;;10.20;99.90;;;;;;5122968;27;20149;-76
2021/12/13 11:39:06;;;;;;;18.45;9.88;;;10.30;99.90;;;;;;5119400;27;20082;-77
2021/12/13 11:41:50;;;;;;;18.02;9.52;;;10.30;99.90;;;;;;5121062;27;20228;-78
2021/12/13 11:44:39;;;;;;;21.00;10.25;;;10.30;99.90;;;;;;5125418;27;20058;-78
2021/12/13 11:47:37;;;;;;;15.23;10.45;;;10.30;99.90;;;;;;5129319;27;20096;-76
2021/12/13 11:50:38;;;;;;;14.32;10.10;;;10.40;99.90;;;;;;5118177;27;20208;-76
2021/12/13 11:53:32;;;;;;;16.67;9.98;;;10.90;99.90;;;;;;5089561;27;20051;-77
2021/12/13 11:56:26;;;;;;;13.93;9.25;;;10.40;99.90;;;;;;5126942;27;20050;-77
2021/12/13 11:59:07;;;;;;;18.70;10.20;;;10.40;99.90;;;;;;5122505;27;20129;-78
2021/12/13 12:02:01;;;;;;;18.10;9.45;;;10.50;99.90;;;;;;5119205;27;20051;-78
2021/12/13 12:05:08;;;;;;;14.70;9.80;;;10.50;99.90;;;;;;5124819;27;20517;-77
2021/12/13 12:08:25;;;;;;;18.52;9.13;;;10.60;99.90;;;;;;5134306;27;20106;-73
2021/12/13 12:11:08;;;;;;;14.63;9.90;;;10.60;99.90;;;;;;5133023;27;20055;-76
2021/12/13 12:13:49;;;;;;;28.17;9.57;;;10.60;99.90;;;;;;5132161;27;20051;-78
2021/12/13 12:16:19;;;;;;;16.88;10.10;;;10.60;99.90;;;;;;5130258;27;20398;-77
2021/12/13 12:18:46;;;;;;;13.65;9.30;;;10.60;99.90;;;;;;5125644;27;20130;-77
2021/12/13 12:21:40;;;;;;;17.65;10.30;;;10.50;99.90;;;;;;5132530;27;20137;-76
2021/12/13 12:24:11;;;;;;;16.85;10.40;;;10.50;99.90;;;;;;5123988;27;20082;-77
2021/12/13 12:26:38;;;;;;;22.15;12.38;;;10.40;99.90;;;;;;5125382;27;20130;-78
2021/12/13 12:29:12;;;;;;;14.52;9.65;;;10.30;99.90;;;;;;5117122;27;20127;-79
2021/12/13 12:31:41;;;;;;;15.40;10.18;;;10.30;99.90;;;;;;5137980;27;20039;-77
2021/12/13 12:34:10;;;;;;;16.30;10.65;;;10.30;99.90;;;;;;5134237;27;20510;-75
2021/12/13 12:37:19;;;;;;;17.88;11.20;;;10.30;99.90;;;;;;5126280;27;20113;-75
2021/12/13 12:40:11;;;;;;;18.25;11.15;;;10.20;99.90;;;;;;5108354;27;20047;-78
2021/12/13 12:42:43;;;;;;;23.88;12.27;;;10.20;99.90;;;;;;5122549;27;20050;-77
2021/12/13 12:45:17;;;;;;;17.45;10.13;;;10.20;99.90;;;;;;5142256;27;20046;-77
2021/12/13 12:48:05;;;;;;;19.42;10.65;;;10.20;99.90;;;;;;5124516;27;20082;-77
2021/12/13 12:50:37;;;;;;;18.40;10.75;;;10.20;99.90;;;;;;5140011;27;20051;-77
2021/12/13 12:53:07;;;;;;;15.90;10.07;;;10.10;99.90;;;;;;5119414;27;20510;-77
2021/12/13 12:55:41;;;;;;;13.32;9.50;;;10.20;99.90;;;;;;5122352;27;20118;-73
2021/12/13 12:58:11;;;;;;;15.55;10.00;;;10.20;99.90;;;;;;5123932;27;20082;-78
2021/12/13 13:00:41;;;;;;;18.02;10.57;;;10.70;99.90;;;;;;5120908;27;20043;-72
2021/12/13 13:03:13;;;;;;;18.50;10.18;;;10.20;99.90;;;;;;5144299;27;20078;-81
2021/12/13 13:05:40;;;;;;;15.05;9.82;;;10.20;99.90;;;;;;5120636;27;20467;-73
2021/12/13 13:08:08;;;;;;;17.48;10.38;;;10.20;99.90;;;;;;5123302;27;20522;-74
2021/12/13 13:13:18;;;;;;;18.30;9.88;;;10.20;99.90;;;;;;5113043;27;20167;-72
2021/12/13 13:15:50;;;;;;;17.38;11.02;;;10.30;99.90;;;;;;5120606;27;20051;-73